Time;durP1;ratioP1;P1;durP2;ratioP2;P2;SDS_P1;SDS_P2;PMS_P1;PMS_P2;Temp;Humidity;BMP_temperature;BMP_pressure;BME280_temperature;BME280_humidity;BME280_pressure;Samples;Min_cycle;Max_cycle;Signal;HPM_P1;HPM_P2
2021/08/28 09:32:53;;;;;;;5.03;2.60;;;22.10;67.10;;;;;;5069162;28;20382;-81
2021/08/28 09:35:21;;;;;;;6.95;3.13;;;22.60;66.80;;;;;;5067051;28;20024;-83
2021/08/28 09:37:58;;;;;;;9.00;3.65;;;22.70;65.90;;;;;;5068734;28;20029;-85
2021/08/28 09:40:27;;;;;;;6.38;3.97;;;22.90;65.60;;;;;;5050843;28;20032;-82
2021/08/28 09:42:56;;;;;;;9.52;4.00;;;23.10;65.80;;;;;;5069061;28;20025;-85
2021/08/28 09:45:24;;;;;;;18.65;3.97;;;23.30;65.70;;;;;;5067392;28;20612;-85
2021/08/28 09:47:52;;;;;;;3.40;2.60;;;23.40;65.30;;;;;;5065526;28;20032;-84
2021/08/28 09:50:46;;;;;;;5.93;2.58;;;23.50;62.70;;;;;;5068274;28;20020;-84
2021/08/28 09:53:16;;;;;;;4.80;2.53;;;23.60;62.70;;;;;;5065568;28;20040;-84
2021/08/28 09:55:43;;;;;;;6.28;2.63;;;23.60;62.30;;;;;;5068032;28;20111;-84
2021/08/28 09:58:11;;;;;;;3.47;2.50;;;23.70;62.10;;;;;;5066505;28;20410;-84
2021/08/28 10:00:45;;;;;;;3.63;2.47;;;23.70;61.80;;;;;;5067623;28;20043;-84
2021/08/28 10:03:12;;;;;;;4.68;2.53;;;23.70;62.00;;;;;;5069366;28;20043;-83
2021/08/28 10:05:40;;;;;;;6.45;2.70;;;23.70;61.50;;;;;;5069423;28;20058;-84
2021/08/28 10:08:07;;;;;;;3.78;2.50;;;23.70;61.60;;;;;;5068249;28;20041;-84
2021/08/28 10:10:39;;;;;;;3.40;2.38;;;23.80;61.60;;;;;;5068147;28;20115;-84
2021/08/28 10:13:06;;;;;;;5.53;2.60;;;23.80;61.40;;;;;;5066875;28;20041;-84
2021/08/28 10:15:34;;;;;;;4.18;2.30;;;23.80;61.10;;;;;;5068045;28;20089;-83
2021/08/28 10:18:03;;;;;;;3.95;2.17;;;23.80;60.80;;;;;;5067951;28;20028;-84
2021/08/28 10:20:30;;;;;;;5.53;1.92;;;23.80;60.80;;;;;;5067933;28;20067;-84
2021/08/28 10:23:00;;;;;;;6.03;2.50;;;23.80;60.80;;;;;;5067821;28;20033;-84
2021/08/28 10:25:28;;;;;;;2.75;1.92;;;23.80;60.90;;;;;;5067741;28;20028;-84
2021/08/28 10:27:56;;;;;;;4.32;2.45;;;23.80;60.90;;;;;;5067659;28;20044;-83
2021/08/28 10:30:24;;;;;;;3.25;2.20;;;23.80;60.50;;;;;;5067392;28;20033;-84
2021/08/28 10:32:51;;;;;;;2.35;2.08;;;23.70;60.60;;;;;;5067666;28;20035;-84
2021/08/28 10:35:19;;;;;;;4.10;2.35;;;23.70;60.70;;;;;;5067567;28;20037;-83
2021/08/28 10:37:45;;;;;;;2.33;2.13;;;23.70;60.60;;;;;;5067381;28;20033;-84
2021/08/28 10:40:22;;;;;;;7.30;2.30;;;23.70;60.90;;;;;;5067425;28;20060;-83
2021/08/28 10:42:57;;;;;;;2.90;2.33;;;23.70;60.60;;;;;;5060980;28;20542;-84
2021/08/28 10:45:28;;;;;;;3.78;2.00;;;23.70;60.20;;;;;;5052988;28;20046;-83
2021/08/28 10:48:15;;;;;;;2.20;2.00;;;23.70;59.80;;;;;;5054031;28;20404;-83
2021/08/28 10:50:43;;;;;;;4.35;2.17;;;23.70;59.70;;;;;;5052764;28;20069;-83
2021/08/28 10:53:11;;;;;;;3.03;2.08;;;23.70;60.00;;;;;;5058579;28;20450;-83
2021/08/28 10:55:44;;;;;;;3.08;2.15;;;23.60;60.00;;;;;;5053810;28;20045;-83
2021/08/28 10:58:15;;;;;;;4.40;2.00;;;23.60;60.20;;;;;;5053974;28;20037;-83
2021/08/28 11:00:47;;;;;;;2.40;2.15;;;23.60;60.10;;;;;;5053851;28;20036;-84
2021/08/28 11:03:30;;;;;;;5.15;2.20;;;23.70;59.70;;;;;;5053912;28;20044;-83
2021/08/28 11:06:18;;;;;;;2.20;2.00;;;23.70;59.70;;;;;;5052518;28;20036;-83
2021/08/28 11:09:00;;;;;;;4.90;2.20;;;23.60;59.00;;;;;;5053610;28;20053;-83
2021/08/28 11:11:37;;;;;;;2.60;2.40;;;23.60;59.00;;;;;;5053749;28;20040;-84
2021/08/28 11:14:12;;;;;;;4.10;2.22;;;23.60;59.10;;;;;;5052297;28;20037;-83
2021/08/28 11:16:44;;;;;;;3.17;2.30;;;23.60;59.30;;;;;;5053651;28;20110;-83
2021/08/28 11:19:31;;;;;;;4.82;2.25;;;23.60;59.30;;;;;;5053629;28;20029;-83
2021/08/28 11:21:57;;;;;;;4.78;2.03;;;23.60;59.30;;;;;;5053449;28;20033;-83
2021/08/28 11:24:25;;;;;;;3.63;2.00;;;23.60;58.70;;;;;;5052284;28;20043;-84
2021/08/28 11:26:53;;;;;;;3.83;2.30;;;23.50;58.80;;;;;;5053269;28;20035;-83
2021/08/28 11:29:26;;;;;;;2.67;2.22;;;23.60;58.80;;;;;;5053349;28;20514;-83
2021/08/28 11:32:10;;;;;;;2.70;2.15;;;23.50;59.20;;;;;;5053037;28;20045;-83
2021/08/28 11:34:51;;;;;;;2.45;2.25;;;23.50;59.20;;;;;;5052322;28;20098;-83
2021/08/28 11:37:26;;;;;;;3.00;2.35;;;23.50;59.00;;;;;;5053175;28;20507;-81
2021/08/28 11:39:56;;;;;;;;;;;23.50;58.90;;;;;;5052300;28;20411;-83
2021/08/28 11:42:22;;;;;;;3.53;2.28;;;23.50;58.80;;;;;;5052987;28;20363;-83
2021/08/28 11:44:49;;;;;;;4.65;2.25;;;23.50;58.60;;;;;;5053116;28;20040;-82
2021/08/28 11:47:15;;;;;;;2.67;2.00;;;23.50;58.90;;;;;;5053080;28;20396;-83
2021/08/28 11:49:41;;;;;;;3.72;2.00;;;23.50;59.30;;;;;;5052093;28;20037;-83
2021/08/28 11:52:08;;;;;;;2.55;2.15;;;23.50;59.10;;;;;;5052956;28;20094;-82
2021/08/28 11:54:34;;;;;;;5.07;1.90;;;23.50;59.20;;;;;;5050685;28;20465;-82
2021/08/28 11:57:00;;;;;;;3.58;2.10;;;23.50;59.00;;;;;;5052824;28;20440;-82
2021/08/28 11:59:37;;;;;;;4.10;2.00;;;23.60;59.70;;;;;;5052625;28;20078;-81
2021/08/28 12:02:04;;;;;;;4.90;2.08;;;23.50;59.30;;;;;;5052680;28;20033;-83
2021/08/28 12:04:33;;;;;;;2.53;2.33;;;23.50;59.00;;;;;;5052753;28;20041;-82
2021/08/28 12:07:00;;;;;;;2.45;2.00;;;23.50;58.60;;;;;;5052611;28;20391;-81
2021/08/28 12:09:26;;;;;;;2.40;1.95;;;23.50;58.60;;;;;;5052740;28;20033;-91
2021/08/28 12:11:54;;;;;;;3.42;2.13;;;23.50;59.00;;;;;;5052423;28;20044;-89
2021/08/28 12:14:23;;;;;;;4.40;2.40;;;23.50;59.20;;;;;;5052389;28;20048;-93
2021/08/28 12:16:49;;;;;;;6.00;2.30;;;23.50;59.40;;;;;;5051946;28;20028;-85
2021/08/28 12:19:24;;;;;;;3.38;2.22;;;23.50;58.90;;;;;;5051401;28;20028;-85
2021/08/28 12:21:53;;;;;;;3.20;2.30;;;23.50;59.20;;;;;;5052654;28;20111;-84
2021/08/28 12:24:23;;;;;;;3.08;2.15;;;23.50;59.20;;;;;;5051228;28;20495;-83
2021/08/28 12:26:53;;;;;;;3.15;2.15;;;23.50;59.20;;;;;;5051139;28;20071;-83
2021/08/28 12:29:25;;;;;;;4.50;2.40;;;23.50;59.60;;;;;;5052180;28;20117;-83
2021/08/28 12:31:57;;;;;;;9.02;2.13;;;23.50;59.90;;;;;;5051527;28;20107;-84
2021/08/28 12:34:25;;;;;;;4.60;2.10;;;23.50;59.50;;;;;;5051288;28;20513;-83
2021/08/28 12:36:51;;;;;;;3.70;2.70;;;23.50;59.40;;;;;;5037991;28;20044;-83
2021/08/28 12:39:17;;;;;;;4.88;2.55;;;23.50;60.10;;;;;;5054111;28;20041;-83
2021/08/28 12:41:44;;;;;;;4.18;2.67;;;23.50;60.30;;;;;;5054754;28;20044;-83
2021/08/28 12:44:11;;;;;;;4.18;2.60;;;23.50;59.80;;;;;;5051858;28;20033;-83
2021/08/28 12:46:40;;;;;;;4.97;2.83;;;23.50;60.00;;;;;;5051926;28;20037;-83
2021/08/28 12:49:11;;;;;;;4.22;2.10;;;23.50;59.90;;;;;;5050315;28;20036;-85
2021/08/28 12:51:45;;;;;;;5.95;2.47;;;23.50;59.60;;;;;;5050366;28;20503;-85
2021/08/28 12:54:18;;;;;;;3.15;2.50;;;23.50;59.40;;;;;;5049103;28;20040;-83
2021/08/28 12:56:53;;;;;;;3.33;2.50;;;23.50;59.60;;;;;;5050555;28;20071;-83
2021/08/28 12:59:20;;;;;;;2.38;2.00;;;23.50;59.70;;;;;;5033917;28;20032;-83
2021/08/28 13:01:52;;;;;;;3.85;2.20;;;23.50;60.20;;;;;;5033441;28;20053;-82
2021/08/28 13:04:18;;;;;;;2.83;2.17;;;23.50;60.50;;;;;;5050314;28;20108;-83
2021/08/28 13:07:11;;;;;;;4.70;2.47;;;23.60;60.30;;;;;;5028142;28;20516;-84
2021/08/28 13:09:52;;;;;;;6.47;2.30;;;23.50;59.40;;;;;;5024801;28;20039;-83
2021/08/28 13:12:19;;;;;;;2.97;2.00;;;23.50;59.80;;;;;;5070360;28;20041;-82
2021/08/28 13:14:53;;;;;;;3.75;2.42;;;23.60;60.10;;;;;;5047515;28;20038;-83
2021/08/28 13:17:28;;;;;;;5.28;2.60;;;23.60;60.60;;;;;;5048243;28;20060;-84
2021/08/28 13:20:05;;;;;;;6.57;2.40;;;23.60;60.40;;;;;;5051553;28;20403;-83
2021/08/28 13:22:31;;;;;;;4.72;2.25;;;23.60;60.00;;;;;;5052606;28;20028;-92
2021/08/28 13:24:57;;;;;;;2.92;2.42;;;23.60;59.80;;;;;;5053759;28;20045;-91
2021/08/28 13:27:23;;;;;;;7.18;2.72;;;23.50;58.50;;;;;;5033867;28;20040;-96
2021/08/28 13:29:50;;;;;;;3.28;2.50;;;23.50;58.70;;;;;;5055964;28;20075;-93
2021/08/28 13:32:17;;;;;;;4.90;2.58;;;23.50;58.10;;;;;;5059012;28;20040;-88
2021/08/28 13:34:49;;;;;;;8.00;2.95;;;23.50;57.60;;;;;;5061343;28;20047;-90
2021/08/28 13:37:17;;;;;;;5.20;2.55;;;23.50;57.60;;;;;;5049479;28;20041;-92
2021/08/28 13:39:46;;;;;;;3.30;2.13;;;23.40;57.50;;;;;;5040346;28;20037;-94
2021/08/28 13:42:23;;;;;;;4.63;2.58;;;23.30;56.90;;;;;;5036833;28;20029;-93
2021/08/28 13:44:49;;;;;;;3.92;2.60;;;23.30;56.80;;;;;;5038861;28;20051;-94
2021/08/28 13:47:15;;;;;;;2.45;2.20;;;23.30;56.80;;;;;;5055749;28;20052;-96
2021/08/28 13:49:44;;;;;;;3.83;2.50;;;23.30;57.40;;;;;;5058936;28;20029;-92
2021/08/28 13:52:15;;;;;;;3.67;2.83;;;23.30;58.30;;;;;;5050814;28;20033;-90
2021/08/28 13:54:41;;;;;;;8.73;2.45;;;23.30;59.00;;;;;;5058830;28;20033;-92
2021/08/28 13:57:07;;;;;;;3.47;2.60;;;23.30;59.10;;;;;;5053710;28;20025;-92
2021/08/28 13:59:34;;;;;;;4.05;2.70;;;23.30;59.70;;;;;;5034607;28;20029;-90
2021/08/28 14:02:00;;;;;;;3.22;2.53;;;23.30;59.20;;;;;;5052372;28;20396;-90
2021/08/28 14:04:26;;;;;;;3.25;2.63;;;23.30;58.10;;;;;;5051004;28;20047;-91
2021/08/28 14:06:52;;;;;;;2.63;2.42;;;23.20;57.40;;;;;;5051645;28;20048;-91
2021/08/28 14:09:17;;;;;;;3.08;2.70;;;23.10;57.30;;;;;;5033536;28;20039;-88
2021/08/28 14:11:46;;;;;;;4.80;2.70;;;23.20;57.10;;;;;;5033649;28;20037;-88
2021/08/28 14:14:13;;;;;;;6.18;2.42;;;23.10;57.00;;;;;;5033755;28;20029;-87
2021/08/28 14:16:38;;;;;;;4.32;2.80;;;23.10;56.80;;;;;;5035035;28;20047;-89
2021/08/28 14:19:04;;;;;;;5.20;2.83;;;23.10;56.70;;;;;;5055517;28;20088;-87
2021/08/28 14:21:30;;;;;;;3.00;2.55;;;23.00;57.40;;;;;;5043507;28;20036;-86
2021/08/28 14:23:56;;;;;;;6.88;2.83;;;23.00;56.80;;;;;;5061555;28;20131;-87
2021/08/28 14:26:22;;;;;;;3.38;2.63;;;23.00;57.00;;;;;;5059601;28;20036;-90
2021/08/28 14:28:48;;;;;;;4.53;2.55;;;23.00;57.30;;;;;;5060571;28;20033;-93
2021/08/28 14:31:14;;;;;;;5.72;3.00;;;23.00;58.10;;;;;;5048639;28;20341;-88
2021/08/28 14:33:40;;;;;;;5.63;2.95;;;23.00;58.40;;;;;;5041032;28;20029;-93
2021/08/28 14:36:06;;;;;;;7.20;3.13;;;23.00;59.10;;;;;;5037635;28;20033;-93
2021/08/28 14:38:32;;;;;;;10.07;2.58;;;23.10;59.60;;;;;;5055860;28;20025;-93
2021/08/28 14:40:58;;;;;;;5.53;2.80;;;23.10;60.10;;;;;;5056172;28;20039;-89
2021/08/28 14:43:24;;;;;;;3.08;2.50;;;23.10;59.80;;;;;;5056194;28;20135;-95
2021/08/28 14:45:50;;;;;;;3.92;2.88;;;23.10;58.80;;;;;;5055094;28;20041;-89
2021/08/28 14:48:16;;;;;;;4.93;2.70;;;23.10;58.30;;;;;;5054966;28;20033;-95
2021/08/28 14:50:42;;;;;;;6.30;3.10;;;23.10;58.30;;;;;;5037638;28;20102;-88
2021/08/28 14:53:12;;;;;;;4.70;3.05;;;23.10;58.70;;;;;;5054233;28;20033;-90
2021/08/28 14:55:41;;;;;;;4.05;3.08;;;23.10;58.90;;;;;;5055405;28;20061;-91
2021/08/28 14:58:07;;;;;;;3.55;2.97;;;23.10;59.40;;;;;;5055929;28;20454;-92
2021/08/28 15:00:35;;;;;;;7.75;3.80;;;23.20;59.70;;;;;;5053761;28;20029;-90
2021/08/28 15:03:01;;;;;;;4.78;3.45;;;23.20;59.70;;;;;;5053611;28;20057;-89
2021/08/28 15:05:27;;;;;;;6.85;3.65;;;23.10;59.00;;;;;;5052927;28;20072;-91
2021/08/28 15:07:52;;;;;;;5.63;3.05;;;23.10;59.00;;;;;;5053881;28;20498;-90
2021/08/28 15:10:18;;;;;;;3.88;2.65;;;23.20;58.80;;;;;;5055879;28;20402;-89
2021/08/28 15:12:44;;;;;;;4.80;2.67;;;23.10;59.20;;;;;;5080447;28;20036;-89
2021/08/28 15:15:10;;;;;;;5.15;3.00;;;23.10;58.60;;;;;;5079881;28;20047;-89
2021/08/28 15:17:37;;;;;;;3.35;3.00;;;23.10;59.30;;;;;;5052803;28;20046;-91
2021/08/28 15:20:05;;;;;;;3.28;2.90;;;23.10;58.90;;;;;;5060243;28;20044;-91
2021/08/28 15:22:33;;;;;;;5.05;2.95;;;23.10;58.40;;;;;;5042240;28;20399;-89
2021/08/28 15:24:59;;;;;;;4.93;3.28;;;23.10;58.40;;;;;;5055407;28;20036;-89
2021/08/28 15:27:24;;;;;;;5.32;3.40;;;23.10;58.10;;;;;;5055959;28;20040;-91
2021/08/28 15:29:51;;;;;;;6.63;3.58;;;23.10;57.90;;;;;;5055705;28;20553;-95
2021/08/28 15:32:17;;;;;;;3.92;3.47;;;23.00;58.10;;;;;;5056064;28;20555;-95
2021/08/28 15:34:43;;;;;;;5.53;3.80;;;23.00;58.30;;;;;;5058863;28;20067;-94
2021/08/28 15:37:09;;;;;;;4.35;3.50;;;23.00;58.20;;;;;;5040395;28;20553;-89
2021/08/28 15:39:35;;;;;;;3.63;3.10;;;23.00;58.20;;;;;;5053872;28;20116;-90
2021/08/28 15:42:01;;;;;;;3.20;2.90;;;23.00;58.60;;;;;;5054392;28;20047;-86
2021/08/28 15:44:27;;;;;;;5.32;3.28;;;23.00;58.60;;;;;;5035464;28;20025;-90
2021/08/28 15:46:53;;;;;;;5.80;3.60;;;22.90;58.80;;;;;;5051878;28;20454;-88
2021/08/28 15:49:19;;;;;;;4.05;3.58;;;22.90;58.80;;;;;;5053320;28;20039;-88
2021/08/28 15:51:45;;;;;;;6.28;3.33;;;22.90;59.10;;;;;;5052010;28;20415;-91
2021/08/28 15:54:15;;;;;;;9.00;3.70;;;22.90;59.30;;;;;;5053806;28;20033;-86
2021/08/28 15:56:42;;;;;;;5.30;3.42;;;22.90;58.90;;;;;;5054001;28;20067;-88
2021/08/28 15:59:08;;;;;;;6.53;3.88;;;22.90;58.70;;;;;;5054154;28;20380;-83
2021/08/28 16:01:34;;;;;;;6.68;3.78;;;22.90;59.10;;;;;;5053909;28;20041;-83
2021/08/28 16:04:00;;;;;;;8.55;3.70;;;22.80;59.50;;;;;;5053692;28;20517;-83
2021/08/28 16:06:28;;;;;;;6.22;3.45;;;22.80;59.50;;;;;;5053320;28;20033;-84
2021/08/28 16:08:54;;;;;;;4.65;3.80;;;22.80;59.50;;;;;;5056971;28;20123;-85
2021/08/28 16:11:20;;;;;;;5.57;3.83;;;22.80;59.50;;;;;;5051990;28;20516;-84
2021/08/28 16:13:46;;;;;;;7.68;3.50;;;22.80;59.80;;;;;;5053360;28;20056;-85
2021/08/28 16:16:13;;;;;;;6.88;3.70;;;22.80;59.70;;;;;;5052006;28;20056;-88
2021/08/28 16:18:40;;;;;;;6.20;4.03;;;22.80;60.20;;;;;;5052105;28;20457;-93
2021/08/28 16:21:06;;;;;;;6.60;3.70;;;22.80;60.60;;;;;;5053539;28;20037;-92
2021/08/28 16:23:32;;;;;;;4.88;3.60;;;22.80;60.80;;;;;;5035513;28;20033;-92
2021/08/28 16:25:58;;;;;;;7.32;4.07;;;22.80;60.80;;;;;;5035242;28;20431;-89
2021/08/28 16:28:24;;;;;;;6.13;4.35;;;22.70;60.60;;;;;;5036074;28;20044;-85
2021/08/28 16:30:50;;;;;;;6.25;4.03;;;22.70;60.30;;;;;;5052135;28;20053;-85
2021/08/28 16:33:16;;;;;;;7.82;4.38;;;22.70;60.60;;;;;;5052268;28;20037;-86
2021/08/28 16:35:42;;;;;;;6.43;4.60;;;22.70;60.20;;;;;;5052050;28;20419;-84
2021/08/28 16:38:08;;;;;;;5.85;4.53;;;22.60;60.10;;;;;;5052031;28;20021;-87
2021/08/28 16:40:35;;;;;;;8.68;4.53;;;22.60;60.30;;;;;;5051625;28;20028;-86
2021/08/28 16:43:04;;;;;;;8.40;4.90;;;22.60;60.90;;;;;;5051436;28;20057;-84
2021/08/28 16:45:31;;;;;;;5.85;5.25;;;22.60;60.70;;;;;;5052694;28;20040;-89
2021/08/28 16:47:57;;;;;;;9.88;5.43;;;22.60;61.00;;;;;;5053933;28;20044;-88
2021/08/28 16:50:24;;;;;;;8.75;4.72;;;22.60;61.60;;;;;;5051913;28;20033;-87
2021/08/28 16:52:51;;;;;;;6.43;4.68;;;22.60;61.80;;;;;;5038370;28;20040;-88
2021/08/28 16:55:17;;;;;;;8.50;4.78;;;22.60;61.80;;;;;;5054412;28;20596;-85
2021/08/28 16:57:43;;;;;;;8.35;5.03;;;22.50;61.80;;;;;;5049449;28;20060;-87
2021/08/28 17:00:10;;;;;;;8.23;4.78;;;22.50;61.80;;;;;;5063026;28;20140;-85
2021/08/28 17:02:36;;;;;;;8.45;5.28;;;22.50;62.70;;;;;;5070525;28;20025;-85
2021/08/28 17:05:02;;;;;;;9.85;5.72;;;22.50;62.00;;;;;;5057824;28;20040;-85
2021/08/28 17:07:28;;;;;;;9.27;5.38;;;22.50;61.80;;;;;;5038300;28;20043;-85
2021/08/28 17:09:54;;;;;;;8.73;5.18;;;22.50;61.70;;;;;;5039749;28;20041;-84
2021/08/28 17:12:21;;;;;;;7.25;5.47;;;22.50;61.50;;;;;;5034621;28;20044;-84
2021/08/28 17:14:47;;;;;;;9.82;5.43;;;22.40;61.50;;;;;;5051462;28;20032;-84
2021/08/28 17:17:13;;;;;;;9.13;5.85;;;22.40;61.30;;;;;;5051878;28;20384;-86
2021/08/28 17:19:41;;;;;;;7.07;5.32;;;22.40;61.40;;;;;;5052275;28;20055;-82
2021/08/28 17:22:08;;;;;;;9.43;5.63;;;22.40;61.80;;;;;;5051700;28;20131;-83
2021/08/28 17:24:34;;;;;;;8.05;5.82;;;22.40;62.10;;;;;;5051462;28;20136;-82
2021/08/28 17:27:01;;;;;;;9.40;5.75;;;22.30;62.20;;;;;;5035314;28;20586;-84
2021/08/28 17:29:27;;;;;;;9.57;6.35;;;22.30;62.20;;;;;;5051336;28;20086;-84
2021/08/28 17:31:54;;;;;;;10.43;6.05;;;22.30;62.00;;;;;;5034374;28;20486;-85
2021/08/28 17:34:20;;;;;;;8.23;6.18;;;22.30;62.10;;;;;;5051833;28;20067;-84
2021/08/28 17:36:46;;;;;;;10.05;6.20;;;22.30;62.10;;;;;;5034508;28;20064;-84
2021/08/28 17:39:12;;;;;;;10.25;6.78;;;22.30;62.30;;;;;;5052332;28;20072;-84
2021/08/28 17:41:38;;;;;;;8.88;6.07;;;22.30;62.60;;;;;;5034797;28;20029;-86
2021/08/28 17:44:05;;;;;;;8.15;6.40;;;22.30;62.30;;;;;;5047912;28;20105;-86
2021/08/28 17:46:36;;;;;;;10.30;6.43;;;22.20;62.30;;;;;;5049909;28;20044;-85
2021/08/28 17:49:06;;;;;;;8.98;6.57;;;22.20;62.40;;;;;;5030688;28;20173;-83
2021/08/28 17:51:33;;;;;;;10.40;6.35;;;22.20;62.20;;;;;;5052437;28;20045;-85
2021/08/28 17:53:59;;;;;;;11.18;6.75;;;22.20;62.10;;;;;;5031216;28;20033;-85
2021/08/28 17:56:28;;;;;;;11.18;6.32;;;22.10;62.40;;;;;;5041243;28;20524;-85
2021/08/28 17:58:53;;;;;;;9.90;7.18;;;22.10;62.30;;;;;;5043058;28;20071;-90
2021/08/28 18:01:21;;;;;;;9.10;6.30;;;22.10;62.20;;;;;;5044120;28;20038;-92
2021/08/28 18:03:48;;;;;;;9.90;6.80;;;22.10;62.70;;;;;;5037813;28;20106;-89
2021/08/28 18:06:15;;;;;;;9.45;6.60;;;22.10;63.00;;;;;;5048421;28;20392;-88
2021/08/28 18:08:53;;;;;;;10.88;6.70;;;22.10;63.10;;;;;;5050259;28;20098;-87
2021/08/28 18:11:25;;;;;;;9.00;6.40;;;22.10;63.50;;;;;;5038075;28;20049;-86
2021/08/28 18:13:51;;;;;;;10.38;6.15;;;22.00;64.10;;;;;;5053847;28;20051;-87
2021/08/28 18:16:17;;;;;;;8.65;5.97;;;22.10;64.90;;;;;;5053785;28;20025;-83
2021/08/28 18:18:51;;;;;;;8.70;6.30;;;22.10;65.40;;;;;;5055139;28;20063;-85
2021/08/28 18:21:17;;;;;;;11.27;6.55;;;22.20;65.90;;;;;;5053784;28;20040;-85
2021/08/28 18:23:43;;;;;;;16.45;7.07;;;22.20;65.90;;;;;;5037070;28;20454;-87
2021/08/28 18:26:09;;;;;;;13.68;7.88;;;22.20;65.80;;;;;;5037550;28;20474;-88
2021/08/28 18:28:35;;;;;;;11.43;7.00;;;22.30;65.80;;;;;;5054747;28;20047;-89
2021/08/28 18:31:01;;;;;;;14.48;7.55;;;22.30;65.70;;;;;;5054136;28;20105;-90
2021/08/28 18:33:27;;;;;;;19.00;7.82;;;22.30;65.90;;;;;;5054013;28;20064;-86
2021/08/28 18:35:53;;;;;;;12.30;7.18;;;22.30;66.40;;;;;;5042846;28;20038;-85
2021/08/28 18:38:19;;;;;;;11.10;7.63;;;22.40;66.40;;;;;;5033413;28;20034;-85
2021/08/28 18:40:45;;;;;;;19.48;7.85;;;22.40;66.10;;;;;;5038132;28;20124;-85
2021/08/28 18:43:11;;;;;;;11.45;7.22;;;22.40;66.00;;;;;;5039172;28;20134;-86
2021/08/28 18:45:37;;;;;;;12.93;8.13;;;22.40;66.20;;;;;;5022485;28;20527;-85
2021/08/28 18:48:03;;;;;;;13.43;7.40;;;22.40;66.20;;;;;;5034221;28;20030;-85
2021/08/28 18:50:29;;;;;;;9.95;7.32;;;22.40;66.20;;;;;;5017815;28;20515;-86
2021/08/28 18:53:00;;;;;;;11.38;7.07;;;22.40;65.90;;;;;;5033635;28;20493;-86
2021/08/28 18:55:26;;;;;;;7.90;6.65;;;22.40;65.90;;;;;;5033978;28;20037;-85
2021/08/28 18:57:52;;;;;;;11.50;6.55;;;22.40;65.80;;;;;;5016769;28;20506;-85
2021/08/28 19:00:18;;;;;;;10.18;6.68;;;22.40;65.60;;;;;;5042860;28;20029;-83
2021/08/28 19:02:45;;;;;;;11.88;7.05;;;22.40;65.40;;;;;;5042208;28;20466;-83
2021/08/28 19:05:11;;;;;;;8.30;6.38;;;22.40;65.50;;;;;;5040618;28;20125;-85
2021/08/28 19:07:37;;;;;;;10.82;6.35;;;22.40;65.30;;;;;;5048712;28;20055;-83
2021/08/28 19:10:06;;;;;;;9.98;6.00;;;22.50;65.40;;;;;;5048943;28;20073;-84
2021/08/28 19:12:32;;;;;;;10.63;6.65;;;22.40;65.20;;;;;;5045847;28;20040;-83
2021/08/28 19:14:59;;;;;;;8.73;5.90;;;22.40;65.20;;;;;;5033975;28;20140;-81
2021/08/28 19:17:25;;;;;;;9.45;5.90;;;22.40;65.20;;;;;;5038456;28;20495;-84
2021/08/28 19:19:51;;;;;;;12.35;6.45;;;22.40;65.20;;;;;;5042708;28;20099;-79
2021/08/28 19:22:16;;;;;;;11.45;5.88;;;22.40;65.00;;;;;;5033753;28;20075;-80
2021/08/28 19:24:42;;;;;;;9.10;6.15;;;22.30;64.70;;;;;;5033845;28;20038;-81
2021/08/28 19:27:08;;;;;;;7.65;5.57;;;22.30;64.70;;;;;;5065681;28;20452;-79
2021/08/28 19:29:34;;;;;;;8.35;6.20;;;22.30;64.50;;;;;;5033849;28;20535;-80
2021/08/28 19:32:02;;;;;;;9.93;6.00;;;22.30;64.50;;;;;;5034189;28;20103;-81
2021/08/28 19:34:29;;;;;;;9.13;5.65;;;22.30;64.50;;;;;;5016606;28;20408;-81
2021/08/28 19:36:55;;;;;;;10.15;5.38;;;22.20;64.40;;;;;;5035946;28;20037;-81
2021/08/28 19:39:23;;;;;;;7.90;5.55;;;22.20;65.00;;;;;;5032703;28;20033;-82
2021/08/28 19:41:49;;;;;;;7.93;5.53;;;22.20;65.20;;;;;;5032872;28;20033;-82
2021/08/28 19:44:15;;;;;;;11.45;5.75;;;22.20;65.10;;;;;;5032570;28;20045;-80
2021/08/28 19:46:41;;;;;;;7.63;5.28;;;22.20;65.20;;;;;;5015897;28;20488;-81
2021/08/28 19:49:07;;;;;;;8.38;5.50;;;22.20;65.30;;;;;;5015861;28;20033;-80
2021/08/28 19:51:33;;;;;;;8.43;5.78;;;22.20;65.60;;;;;;5040709;28;20048;-91
2021/08/28 19:53:59;;;;;;;10.68;5.78;;;22.20;66.20;;;;;;5048210;28;20060;-90
2021/08/28 19:56:25;;;;;;;9.38;5.70;;;22.30;65.00;;;;;;5055273;28;20040;-90
2021/08/28 19:58:51;;;;;;;8.45;5.63;;;22.20;64.00;;;;;;5036854;28;20032;-88
2021/08/28 20:01:17;;;;;;;7.13;5.68;;;22.10;63.70;;;;;;5035306;28;20084;-87
2021/08/28 20:03:43;;;;;;;8.68;5.90;;;22.10;63.40;;;;;;5040044;28;20079;-89
2021/08/28 20:06:09;;;;;;;9.93;6.38;;;22.10;63.20;;;;;;5019281;28;20031;-88
2021/08/28 20:08:54;;;;;;;8.30;5.80;;;22.00;63.20;;;;;;5049968;28;20090;-89
2021/08/28 20:11:20;;;;;;;6.55;5.57;;;22.00;63.30;;;;;;5037031;28;20036;-91
2021/08/28 20:13:46;;;;;;;9.68;5.47;;;21.90;63.20;;;;;;5037155;28;20025;-88
2021/08/28 20:16:12;;;;;;;7.30;5.25;;;21.80;63.00;;;;;;5041283;28;20059;-90
2021/08/28 20:18:38;;;;;;;8.82;5.65;;;21.80;63.00;;;;;;5053344;28;20029;-86
2021/08/28 20:21:04;;;;;;;8.15;6.25;;;21.70;62.80;;;;;;5053300;28;20028;-86
2021/08/28 20:23:30;;;;;;;8.75;6.03;;;21.70;63.00;;;;;;5056969;28;20045;-86
2021/08/28 20:25:56;;;;;;;10.20;5.55;;;21.60;62.90;;;;;;5059576;28;20033;-85
2021/08/28 20:28:21;;;;;;;8.85;5.43;;;21.60;62.90;;;;;;5061561;28;20033;-85
2021/08/28 20:30:47;;;;;;;5.97;4.78;;;21.60;63.00;;;;;;5042874;28;20079;-90
2021/08/28 20:33:17;;;;;;;7.47;4.57;;;21.50;63.00;;;;;;5040346;28;20509;-88
2021/08/28 20:35:45;;;;;;;6.90;5.22;;;21.50;62.90;;;;;;5046424;28;20125;-88
2021/08/28 20:38:11;;;;;;;6.88;5.10;;;21.50;62.90;;;;;;5019377;28;20029;-90
2021/08/28 20:40:38;;;;;;;6.60;4.95;;;21.50;62.90;;;;;;5036895;28;20041;-89
2021/08/28 20:43:04;;;;;;;10.40;5.30;;;21.40;62.80;;;;;;5048800;28;20025;-89
2021/08/28 20:45:30;;;;;;;7.75;5.20;;;21.40;62.90;;;;;;5033016;28;20071;-89
2021/08/28 20:47:55;;;;;;;11.90;5.05;;;21.30;62.80;;;;;;5053451;28;20036;-89
2021/08/28 20:50:21;;;;;;;7.32;4.88;;;21.30;62.70;;;;;;5048433;28;20041;-88
2021/08/28 20:52:49;;;;;;;6.95;5.40;;;21.30;62.70;;;;;;5039421;28;20029;-89
2021/08/28 20:55:16;;;;;;;8.75;5.10;;;21.20;62.60;;;;;;5041677;28;20037;-88
2021/08/28 20:57:43;;;;;;;6.68;5.10;;;21.10;62.70;;;;;;5035373;28;20033;-89
2021/08/28 21:00:10;;;;;;;7.78;4.60;;;21.10;62.80;;;;;;5034691;28;20118;-88
2021/08/28 21:02:36;;;;;;;7.72;4.80;;;21.10;62.80;;;;;;5051381;28;20503;-89
2021/08/28 21:05:05;;;;;;;8.77;5.15;;;21.10;62.90;;;;;;5052607;28;20043;-89
2021/08/28 21:07:31;;;;;;;7.03;4.95;;;21.10;63.00;;;;;;5051130;28;20029;-89
2021/08/28 21:10:00;;;;;;;7.90;5.65;;;21.10;63.10;;;;;;5048385;28;20111;-88
2021/08/28 21:12:29;;;;;;;11.80;5.47;;;21.10;63.20;;;;;;5038754;28;20037;-89
2021/08/28 21:14:55;;;;;;;9.45;5.13;;;21.10;63.20;;;;;;5048121;28;20038;-89
2021/08/28 21:17:21;;;;;;;7.78;4.85;;;21.00;63.30;;;;;;5076170;28;20036;-88
2021/08/28 21:19:48;;;;;;;6.70;4.55;;;21.00;63.40;;;;;;5066277;28;20128;-89
2021/08/28 21:22:17;;;;;;;9.70;6.43;;;21.00;63.30;;;;;;5037487;28;20037;-90
2021/08/28 21:24:46;;;;;;;7.50;5.38;;;21.00;63.40;;;;;;5052243;28;20037;-90
2021/08/28 21:27:12;;;;;;;6.55;4.70;;;20.90;63.40;;;;;;5035382;28;20037;-89
2021/08/28 21:29:38;;;;;;;7.22;4.72;;;21.00;63.60;;;;;;5034766;28;20086;-89
2021/08/28 21:32:04;;;;;;;6.97;4.88;;;20.90;63.50;;;;;;5034620;28;20053;-89
2021/08/28 21:34:31;;;;;;;7.15;4.97;;;20.90;63.50;;;;;;5051280;28;20519;-89
2021/08/28 21:36:56;;;;;;;4.88;4.30;;;20.90;63.60;;;;;;5051225;28;20427;-89
2021/08/28 21:39:22;;;;;;;7.50;4.13;;;20.90;63.50;;;;;;5052551;28;20037;-89
2021/08/28 21:41:48;;;;;;;6.10;4.53;;;20.80;63.40;;;;;;5051176;28;20047;-89
2021/08/28 21:44:14;;;;;;;6.25;4.60;;;20.80;63.60;;;;;;5049318;28;20037;-88
2021/08/28 21:46:40;;;;;;;6.15;4.47;;;20.80;63.60;;;;;;5014421;28;20068;-89
2021/08/28 21:49:06;;;;;;;8.48;4.93;;;20.70;63.80;;;;;;5064324;28;20041;-89
2021/08/28 21:51:32;;;;;;;6.28;4.70;;;20.70;63.70;;;;;;5032390;28;20432;-89
2021/08/28 21:53:58;;;;;;;5.72;4.10;;;20.70;63.80;;;;;;5032236;28;20412;-89
2021/08/28 21:56:24;;;;;;;5.68;4.38;;;20.70;63.90;;;;;;5033889;28;20029;-89
2021/08/28 21:58:49;;;;;;;6.32;4.30;;;20.70;64.00;;;;;;5014565;28;20088;-89
2021/08/28 22:01:15;;;;;;;6.13;4.40;;;20.60;63.90;;;;;;5034186;28;20037;-88
2021/08/28 22:03:41;;;;;;;6.20;4.72;;;20.50;63.90;;;;;;5052035;28;20029;-89
2021/08/28 22:06:07;;;;;;;7.85;4.45;;;20.50;64.00;;;;;;5046562;28;20105;-88
2021/08/28 22:08:33;;;;;;;8.90;4.65;;;20.50;64.00;;;;;;5037182;28;20023;-88
2021/08/28 22:10:59;;;;;;;5.85;4.10;;;20.50;64.10;;;;;;5057611;28;20041;-92
2021/08/28 22:13:25;;;;;;;5.78;4.30;;;20.50;64.00;;;;;;5049537;28;20509;-91
2021/08/28 22:15:51;;;;;;;4.80;4.05;;;20.50;64.00;;;;;;5041902;28;20033;-91
2021/08/28 22:18:17;;;;;;;6.55;4.45;;;20.40;64.00;;;;;;5058107;28;20047;-89
2021/08/28 22:20:43;;;;;;;5.72;4.43;;;20.40;64.20;;;;;;5049361;28;20389;-88